EKOD/ODE METAR and TAF weather

Enter ICAO airport designator
Station Type Date Time Source
EKOD METAR 2018/12/11 12:50 UTC NOAA

EKOD 111250Z 36012KT 9999 SCT020 BKN025 05/03 Q1019


Station Type Date Time Source
EKOD Decoded METAR 2018/12/11 12:50 UTC NOAA

Odense / Beldringe, Denmark (EKOD) 55-29N 010-20E 17M
Dec 11, 2018 - 07:50 AM EST / 2018.12.11 1250 UTC
Wind: from the N (360 degrees) at 14 MPH (12 KT):0
Visibility: greater than 7 mile(s):0
Sky conditions: mostly cloudy
Temperature: 41 F (5 C)
Dew Point: 37 F (3 C)
Relative Humidity: 86%
Pressure (altimeter): 30.09 in. Hg (1019 hPa)
ob: EKOD 111250Z 36012KT 9999 SCT020 BKN025 05/03 Q1019
cycle: 13

Station Type Date Time Source
EKOD TAF 2015/04/20 17:00 UTC NOAA

TAF
AMD EKOD 201701Z 2017/2018 CNL


Example: see airport list